createdAt,value
2022-11-23T00:00:00.890Z,20.80
2022-11-23T00:04:24.950Z,19.35
2022-11-23T00:08:48.080Z,20.73
2022-11-23T00:13:09.967Z,21.67
2022-11-23T00:17:32.396Z,20.58
2022-11-23T00:21:54.134Z,16.77
2022-11-23T00:26:17.438Z,21.30
2022-11-23T00:30:39.227Z,22.17
2022-11-23T00:35:01.078Z,22.33
2022-11-23T00:39:25.002Z,23.90
2022-11-23T00:43:47.256Z,21.50
2022-11-23T00:48:08.994Z,21.80
2022-11-23T00:52:30.992Z,19.73
2022-11-23T00:56:52.791Z,24.60
2022-11-23T01:01:16.282Z,20.70
2022-11-23T01:05:38.618Z,22.00
2022-11-23T01:10:00.613Z,22.52
2022-11-23T01:14:22.809Z,23.60
2022-11-23T01:18:44.684Z,27.02
2022-11-23T01:23:06.695Z,23.33
2022-11-23T01:27:28.892Z,21.80
2022-11-23T01:31:53.551Z,24.50
2022-11-23T01:36:23.642Z,18.92
2022-11-23T01:40:46.487Z,26.83
2022-11-23T01:45:40.854Z,22.02
2022-11-23T01:50:02.590Z,20.83
2022-11-23T01:54:34.418Z,23.98
2022-11-23T01:58:59.894Z,27.48
2022-11-23T02:03:24.271Z,26.33
2022-11-23T02:07:50.102Z,24.98
2022-11-23T02:12:13.990Z,24.33
2022-11-23T02:16:38.962Z,25.15
2022-11-23T02:21:02.537Z,25.58
2022-11-23T02:25:45.312Z,27.25
2022-11-23T02:30:08.035Z,23.77
2022-11-23T02:34:29.943Z,23.48
2022-11-23T02:38:52.729Z,23.58
2022-11-23T02:43:16.653Z,25.83
2022-11-23T02:47:40.872Z,23.23
2022-11-23T02:52:05.205Z,24.88
2022-11-23T02:56:27.497Z,23.85
2022-11-23T03:00:49.463Z,22.70
2022-11-23T03:05:14.906Z,22.13
2022-11-23T03:09:36.798Z,18.17
2022-11-23T03:13:59.022Z,21.85
2022-11-23T03:18:23.509Z,21.95
2022-11-23T03:22:45.655Z,19.35
2022-11-23T03:27:09.297Z,20.02
2022-11-23T03:31:31.708Z,18.67
2022-11-23T03:35:54.560Z,22.48
2022-11-23T03:40:20.840Z,19.30
2022-11-23T03:45:14.833Z,17.98
2022-11-23T03:49:36.957Z,16.65
2022-11-23T03:53:58.889Z,18.30
2022-11-23T03:58:20.901Z,17.00
2022-11-23T04:02:44.115Z,18.23
2022-11-23T04:07:25.706Z,14.23
2022-11-23T04:11:50.114Z,17.20
2022-11-23T04:16:13.701Z,19.65
2022-11-23T04:20:36.810Z,17.65
2022-11-23T04:24:58.844Z,17.98
2022-11-23T04:29:20.855Z,16.38
2022-11-23T04:33:47.627Z,18.88
2022-11-23T04:38:12.074Z,15.57
2022-11-23T04:42:33.968Z,17.55
2022-11-23T04:46:57.060Z,20.05
2022-11-23T04:51:19.638Z,16.08
2022-11-23T04:55:41.534Z,15.93
2022-11-23T05:00:05.160Z,20.55
2022-11-23T05:04:30.539Z,18.13
2022-11-23T05:08:52.915Z,16.80
2022-11-23T05:13:37.625Z,17.40
2022-11-23T05:18:07.409Z,15.35
2022-11-23T05:22:30.717Z,21.17
2022-11-23T05:26:56.215Z,19.77
2022-11-23T05:31:19.524Z,18.33
2022-11-23T05:35:43.243Z,19.75
2022-11-23T05:40:06.382Z,19.23
2022-11-23T05:44:28.449Z,22.77
2022-11-23T05:48:50.983Z,25.38
2022-11-23T05:53:13.198Z,24.05
2022-11-23T05:57:37.675Z,22.02
2022-11-23T06:02:01.195Z,18.95
2022-11-23T06:06:27.133Z,21.25
2022-11-23T06:10:49.179Z,20.35
2022-11-23T06:15:11.296Z,24.00
2022-11-23T06:19:35.178Z,22.35
2022-11-23T06:23:58.617Z,23.10
2022-11-23T06:28:21.148Z,27.30
2022-11-23T06:32:44.617Z,23.67
2022-11-23T06:37:06.825Z,25.88
2022-11-23T06:41:32.410Z,19.50
2022-11-23T06:45:57.244Z,21.92
2022-11-23T06:50:23.330Z,22.85
2022-11-23T06:54:46.230Z,20.23
2022-11-23T06:59:10.084Z,22.17
2022-11-23T07:03:32.054Z,17.08
2022-11-23T07:07:59.955Z,24.58
2022-11-23T07:12:22.899Z,23.10
2022-11-23T07:16:44.932Z,22.73
2022-11-23T07:21:07.013Z,25.33
2022-11-23T07:25:31.097Z,22.23
2022-11-23T07:29:54.128Z,18.30
2022-11-23T07:34:15.987Z,18.58
2022-11-23T07:38:38.513Z,13.20
2022-11-23T07:43:04.483Z,15.48
2022-11-23T07:47:26.775Z,14.23
2022-11-23T07:51:48.558Z,13.05
2022-11-23T07:56:10.452Z,13.50
2022-11-23T08:00:32.910Z,12.18
2022-11-23T08:04:55.668Z,10.23
2022-11-23T08:09:17.833Z,12.75
2022-11-23T08:13:39.399Z,12.38
2022-11-23T08:18:03.853Z,10.40
2022-11-23T08:22:27.199Z,11.07
2022-11-23T08:26:49.372Z,11.45
2022-11-23T08:31:13.047Z,10.35
2022-11-23T08:35:39.713Z,11.82
2022-11-23T08:40:01.657Z,21.17
2022-11-23T08:44:24.100Z,14.02
2022-11-23T08:48:45.833Z,11.02
2022-11-23T08:53:07.972Z,11.90
2022-11-23T08:57:30.149Z,10.23
2022-11-23T09:01:52.691Z,8.55
2022-11-23T09:06:14.738Z,9.82
2022-11-23T09:10:37.940Z,11.00
2022-11-23T09:15:00.050Z,11.20
2022-11-23T09:19:22.754Z,8.20
2022-11-23T09:23:44.867Z,10.15
2022-11-23T09:28:06.978Z,8.70
2022-11-23T09:32:29.288Z,9.15
2022-11-23T09:36:51.003Z,12.10
2022-11-23T09:41:35.647Z,13.68
2022-11-23T09:46:07.986Z,8.65
2022-11-23T09:50:53.148Z,11.40
2022-11-23T09:55:37.966Z,10.18
2022-11-23T10:00:08.791Z,10.50
2022-11-23T10:04:35.751Z,10.27
2022-11-23T10:09:39.347Z,9.20
2022-11-23T10:14:32.934Z,8.32
2022-11-23T10:19:39.461Z,11.52
2022-11-23T10:24:21.369Z,13.40
2022-11-23T10:28:45.498Z,10.20
2022-11-23T10:33:34.122Z,9.57
2022-11-23T10:38:19.786Z,10.50
2022-11-23T10:42:56.466Z,7.47
2022-11-23T10:48:00.710Z,8.27
2022-11-23T10:52:30.389Z,9.02
2022-11-23T10:56:54.173Z,7.93
2022-11-23T11:01:24.537Z,7.57
2022-11-23T11:06:08.482Z,10.27
2022-11-23T11:10:45.637Z,6.30
2022-11-23T11:15:12.066Z,6.30
2022-11-23T11:19:36.539Z,8.05
2022-11-23T11:24:15.756Z,6.60
2022-11-23T11:28:42.994Z,7.10
2022-11-23T11:33:36.260Z,6.05
2022-11-23T11:38:33.446Z,4.78
2022-11-23T11:43:13.109Z,9.43
2022-11-23T11:47:41.901Z,6.47
2022-11-23T11:52:14.498Z,11.07
2022-11-23T11:56:47.178Z,7.22
2022-11-23T12:01:56.415Z,9.30
2022-11-23T12:06:32.942Z,8.38
2022-11-23T12:11:02.058Z,8.70
2022-11-23T12:15:49.486Z,9.60
2022-11-23T12:20:49.760Z,10.05
2022-11-23T12:25:36.819Z,13.40
2022-11-23T12:30:02.081Z,17.23
2022-11-23T12:34:33.407Z,12.68
2022-11-23T12:39:12.100Z,9.90
2022-11-23T12:43:54.560Z,8.05
2022-11-23T12:48:37.848Z,9.93
2022-11-23T12:53:46.060Z,10.18
2022-11-23T12:58:31.372Z,5.82
2022-11-23T13:02:56.387Z,9.45
2022-11-23T13:07:59.849Z,10.57
2022-11-23T13:12:39.619Z,11.60
2022-11-23T13:17:12.245Z,11.85
2022-11-23T13:21:44.856Z,16.67
2022-11-23T13:26:25.122Z,7.45
2022-11-23T13:31:16.146Z,6.93
2022-11-23T13:35:52.707Z,3.03
2022-11-23T13:40:22.862Z,10.52
2022-11-23T13:44:44.686Z,7.25
2022-11-23T13:49:29.423Z,7.32
2022-11-23T13:54:04.032Z,8.90
2022-11-23T13:58:25.692Z,12.55
2022-11-23T14:02:47.600Z,9.40
2022-11-23T14:07:25.599Z,10.32
2022-11-23T14:12:20.128Z,11.20
2022-11-23T14:17:09.054Z,10.00
2022-11-23T14:21:55.854Z,8.85
2022-11-23T14:26:45.486Z,12.48
2022-11-23T14:31:29.089Z,9.85
2022-11-23T14:36:20.030Z,10.80
2022-11-23T14:41:26.031Z,8.80
2022-11-23T14:45:48.376Z,8.70
2022-11-23T14:50:29.567Z,9.98
2022-11-23T14:54:55.465Z,9.18
2022-11-23T14:59:32.505Z,12.98
2022-11-23T15:04:24.224Z,11.23
2022-11-23T15:09:15.306Z,10.30
2022-11-23T15:13:48.023Z,12.27
2022-11-23T15:18:09.617Z,8.25
2022-11-23T15:22:33.103Z,9.48
2022-11-23T15:27:09.497Z,10.55
2022-11-23T15:31:36.716Z,12.48
2022-11-23T15:35:58.355Z,13.98
2022-11-23T15:40:20.779Z,13.07
2022-11-23T15:44:47.452Z,13.95
2022-11-23T15:49:15.068Z,16.08
2022-11-23T15:53:50.602Z,13.07
2022-11-23T15:58:19.753Z,13.63
2022-11-23T16:02:41.737Z,13.85
2022-11-23T16:07:19.234Z,16.95
2022-11-23T16:11:45.290Z,17.90
2022-11-23T16:16:20.465Z,19.23
2022-11-23T16:21:05.426Z,17.58
2022-11-23T16:25:33.994Z,18.33
2022-11-23T16:30:01.444Z,22.42
2022-11-23T16:34:27.194Z,21.33
2022-11-23T16:38:49.231Z,21.08
2022-11-23T16:43:12.916Z,20.10
2022-11-23T16:47:35.384Z,22.50
2022-11-23T16:51:57.661Z,22.75
2022-11-23T16:56:23.736Z,21.77
2022-11-23T17:00:46.121Z,20.95
2022-11-23T17:05:25.401Z,22.58
2022-11-23T17:09:47.345Z,21.80
2022-11-23T17:14:18.447Z,23.95
2022-11-23T17:18:41.596Z,23.73
2022-11-23T17:23:03.576Z,25.15
2022-11-23T17:27:25.670Z,22.60
2022-11-23T17:32:03.961Z,24.95
2022-11-23T17:36:32.031Z,23.10
2022-11-23T17:40:54.396Z,24.45
2022-11-23T17:45:16.397Z,23.92
2022-11-23T17:49:38.208Z,21.13
2022-11-23T17:54:00.166Z,24.95
2022-11-23T17:58:22.513Z,22.60
2022-11-23T18:02:44.367Z,23.83
2022-11-23T18:07:06.899Z,29.73
2022-11-23T18:11:29.073Z,35.10
2022-11-23T18:15:51.467Z,25.52
2022-11-23T18:20:13.541Z,24.83
2022-11-23T18:24:35.662Z,29.38
2022-11-23T18:29:00.623Z,31.45
2022-11-23T18:33:24.009Z,28.02
2022-11-23T18:37:45.839Z,26.77
2022-11-23T18:42:07.898Z,27.73
2022-11-23T18:46:30.123Z,26.67
2022-11-23T18:50:54.088Z,26.55
2022-11-23T18:55:15.936Z,24.83
2022-11-23T19:04:19.677Z,30.00
2022-11-23T19:08:45.416Z,26.23
2022-11-23T19:13:07.148Z,30.30
2022-11-23T19:17:29.661Z,27.02
2022-11-23T19:21:51.730Z,28.70
2022-11-23T19:26:13.697Z,27.20
2022-11-23T19:30:35.718Z,27.27
2022-11-23T19:34:57.835Z,27.38
2022-11-23T19:39:19.925Z,25.20
2022-11-23T19:43:42.550Z,27.13
2022-11-23T19:48:04.353Z,28.92
2022-11-23T19:52:55.469Z,26.75
2022-11-23T19:57:12.493Z,26.70
2022-11-23T20:01:36.274Z,26.60
2022-11-23T20:06:01.459Z,26.60
2022-11-23T20:10:23.397Z,24.42
2022-11-23T20:14:45.310Z,28.67
2022-11-23T20:19:09.644Z,23.65
2022-11-23T20:23:31.366Z,27.13
2022-11-23T20:27:53.309Z,26.60
2022-11-23T20:32:15.885Z,29.92
2022-11-23T20:36:38.788Z,29.88
2022-11-23T20:41:00.962Z,30.25
2022-11-23T20:45:24.773Z,29.08
2022-11-23T20:49:46.968Z,30.95
2022-11-23T20:54:09.073Z,31.55
2022-11-23T20:58:31.462Z,35.25
2022-11-23T21:02:56.060Z,34.55
2022-11-23T21:07:17.884Z,27.85
2022-11-23T21:11:58.816Z,28.50
2022-11-23T21:16:21.715Z,25.85
2022-11-23T21:20:44.829Z,29.83
2022-11-23T21:25:08.577Z,30.00
2022-11-23T21:29:32.617Z,27.45
2022-11-23T21:33:55.542Z,27.42
2022-11-23T21:38:17.791Z,25.17
2022-11-23T21:42:39.756Z,24.23
2022-11-23T21:47:01.744Z,29.40
2022-11-23T21:51:27.009Z,26.92
2022-11-23T21:55:49.078Z,26.83
2022-11-23T22:00:11.667Z,29.08
2022-11-23T22:04:33.809Z,28.23
2022-11-23T22:08:57.945Z,31.88
2022-11-23T22:13:20.266Z,31.38
2022-11-23T22:17:42.262Z,29.63
2022-11-23T22:22:05.654Z,34.58
2022-11-23T22:26:27.983Z,30.83
2022-11-23T22:30:53.706Z,32.05
2022-11-23T22:35:15.852Z,27.83
2022-11-23T22:39:37.489Z,28.95
2022-11-23T22:44:00.216Z,32.78
2022-11-23T22:48:22.107Z,28.85
2022-11-23T22:52:44.024Z,27.33
2022-11-23T22:57:06.157Z,29.73
2022-11-23T23:01:31.667Z,31.25
2022-11-23T23:05:57.928Z,35.10
2022-11-23T23:10:19.693Z,25.85
2022-11-23T23:14:41.545Z,30.30
2022-11-23T23:19:03.728Z,31.45
2022-11-23T23:23:25.446Z,29.58
2022-11-23T23:27:47.376Z,31.60
2022-11-23T23:32:09.463Z,31.50
2022-11-23T23:36:31.220Z,35.88
2022-11-23T23:40:56.060Z,33.88
2022-11-23T23:45:17.903Z,33.33
2022-11-23T23:49:40.061Z,25.67
2022-11-23T23:54:02.194Z,31.98
2022-11-23T23:58:25.048Z,35.40
